Time;durP1;ratioP1;P1;durP2;ratioP2;P2;SDS_P1;SDS_P2;PMS_P1;PMS_P2;Temp;Humidity;BMP_temperature;BMP_pressure;BME280_temperature;BME280_humidity;BME280_pressure;Samples;Min_cycle;Max_cycle;Signal;HPM_P1;HPM_P2
2021/04/15 00:00:23;;;;;;;1.40;1.30;;;0.30;99.90;;;;;;4662941;30;20429;-77
2021/04/15 00:02:48;;;;;;;1.80;1.10;;;0.30;99.90;;;;;;4677157;30;20425;-77
2021/04/15 00:05:19;;;;;;;1.30;1.20;;;0.30;99.90;;;;;;4661547;30;20864;-77
2021/04/15 00:07:44;;;;;;;1.30;1.20;;;0.20;99.90;;;;;;4664555;30;20421;-77
2021/04/15 00:10:10;;;;;;;1.17;1.17;;;0.20;99.90;;;;;;4674285;30;20429;-77
2021/04/15 00:12:37;;;;;;;1.10;1.10;;;0.30;99.90;;;;;;4657050;30;20558;-77
2021/04/15 00:15:06;;;;;;;1.52;1.42;;;0.30;99.90;;;;;;4675123;30;20453;-77
2021/04/15 00:17:31;;;;;;;2.45;1.50;;;0.20;99.90;;;;;;4674200;30;20707;-78
2021/04/15 00:19:57;;;;;;;1.80;1.40;;;0.20;99.90;;;;;;4672205;30;20418;-78
2021/04/15 00:22:23;;;;;;;1.80;1.50;;;0.20;99.90;;;;;;4677566;30;20550;-77
2021/04/15 00:24:48;;;;;;;1.67;1.40;;;0.20;99.90;;;;;;4681847;30;20437;-78
2021/04/15 00:27:14;;;;;;;1.60;1.50;;;0.10;99.90;;;;;;4664453;30;20441;-77
2021/04/15 00:29:39;;;;;;;1.60;1.50;;;0.00;99.90;;;;;;4676291;30;20506;-76
2021/04/15 00:32:06;;;;;;;1.40;1.30;;;0.10;99.90;;;;;;4676239;30;20480;-77
2021/04/15 00:34:31;;;;;;;1.48;1.38;;;0.00;99.90;;;;;;4658808;30;20437;-77
2021/04/15 00:36:57;;;;;;;1.20;1.20;;;-0.10;99.90;;;;;;4679092;30;20959;-77
2021/04/15 00:39:23;;;;;;;1.27;1.20;;;-0.10;99.90;;;;;;4676662;30;20453;-77
2021/04/15 00:41:49;;;;;;;1.50;1.40;;;-0.10;99.90;;;;;;4677547;30;20488;-77
2021/04/15 00:44:15;;;;;;;1.75;1.50;;;-0.20;99.90;;;;;;4661355;30;20433;-77
2021/04/15 00:46:52;;;;;;;1.43;1.33;;;-0.20;99.90;;;;;;4645937;30;20438;-77
2021/04/15 00:49:50;;;;;;;1.63;1.52;;;-0.20;99.90;;;;;;4690401;30;20428;-77
2021/04/15 00:52:17;;;;;;;2.08;1.42;;;-0.20;99.90;;;;;;4645136;30;20431;-77
2021/04/15 00:54:45;;;;;;;1.55;1.45;;;-0.20;99.90;;;;;;4670562;30;20433;-77
2021/04/15 00:57:35;;;;;;;1.43;1.33;;;-0.20;99.90;;;;;;4663617;30;20421;-77
2021/04/15 01:00:01;;;;;;;1.58;1.38;;;-0.20;99.90;;;;;;4673297;30;20457;-77
2021/04/15 01:02:28;;;;;;;1.60;1.50;;;-0.20;99.90;;;;;;4674267;30;20465;-77
2021/04/15 01:05:05;;;;;;;1.90;1.50;;;-0.20;99.90;;;;;;4672906;30;21009;-77
2021/04/15 01:07:31;;;;;;;1.40;1.30;;;-0.20;99.90;;;;;;4677619;30;20503;-76
2021/04/15 01:09:56;;;;;;;1.40;1.30;;;-0.20;99.90;;;;;;4664726;30;20464;-77
2021/04/15 01:13:01;;;;;;;2.03;1.20;;;-0.20;99.90;;;;;;4677802;30;20507;-77
2021/04/15 01:15:47;;;;;;;1.60;1.50;;;-0.20;99.90;;;;;;4678995;30;20442;-77
2021/04/15 01:18:24;;;;;;;2.17;1.50;;;-0.30;99.90;;;;;;4677194;30;21011;-77
2021/04/15 01:21:24;;;;;;;1.73;1.60;;;-0.30;99.90;;;;;;4677659;30;20426;-77
2021/04/15 01:23:58;;;;;;;1.88;1.42;;;-0.30;99.90;;;;;;4663183;30;20410;-77
2021/04/15 01:26:47;;;;;;;1.40;1.30;;;-0.30;99.90;;;;;;4671395;30;21266;-77
2021/04/15 01:29:19;;;;;;;1.60;1.50;;;-0.30;99.90;;;;;;4677812;30;20414;-77
2021/04/15 01:32:04;;;;;;;1.70;1.60;;;-0.30;99.90;;;;;;4661186;30;20454;-77
2021/04/15 01:34:39;;;;;;;1.60;1.50;;;-0.20;99.90;;;;;;4675991;30;20446;-76
2021/04/15 01:37:16;;;;;;;1.60;1.50;;;-0.20;99.90;;;;;;4695887;30;20448;-77
2021/04/15 01:39:45;;;;;;;1.50;1.40;;;-0.20;99.90;;;;;;4678447;30;20469;-76
2021/04/15 01:42:13;;;;;;;1.70;1.60;;;-0.20;99.90;;;;;;4691891;30;20453;-76
2021/04/15 01:44:45;;;;;;;2.00;1.80;;;-0.20;99.90;;;;;;4687492;30;20434;-76
2021/04/15 01:47:14;;;;;;;1.50;1.40;;;-0.20;99.90;;;;;;4647994;30;20441;-76
2021/04/15 01:49:41;;;;;;;1.75;1.58;;;-0.20;99.90;;;;;;4676868;30;20440;-76
2021/04/15 01:52:08;;;;;;;1.52;1.42;;;-0.20;99.90;;;;;;4645383;30;20435;-77
2021/04/15 01:54:50;;;;;;;1.63;1.52;;;-0.20;99.90;;;;;;4679084;30;20430;-76
2021/04/15 01:57:20;;;;;;;1.52;1.42;;;-0.10;99.90;;;;;;4667201;30;21315;-76
2021/04/15 01:59:48;;;;;;;2.13;1.45;;;-0.20;99.90;;;;;;4687876;30;20455;-76
2021/04/15 02:02:40;;;;;;;1.33;1.30;;;-0.20;99.90;;;;;;4660881;30;21036;-76
2021/04/15 02:05:12;;;;;;;1.33;1.23;;;-0.20;99.90;;;;;;4688279;30;20481;-76
2021/04/15 02:07:44;;;;;;;1.95;1.58;;;-0.20;99.90;;;;;;4660028;30;21178;-76
2021/04/15 02:10:11;;;;;;;1.70;1.60;;;-0.20;99.90;;;;;;4674342;30;20442;-76
2021/04/15 02:12:39;;;;;;;1.55;1.45;;;-0.10;99.90;;;;;;4674038;30;21720;-76
2021/04/15 02:15:32;;;;;;;1.98;1.80;;;-0.10;99.90;;;;;;4671628;30;20439;-76
2021/04/15 02:18:03;;;;;;;1.67;1.58;;;-0.10;99.90;;;;;;4666515;30;21969;-76
2021/04/15 02:20:29;;;;;;;1.85;1.75;;;-0.10;99.90;;;;;;4677876;30;20441;-76
2021/04/15 02:23:09;;;;;;;2.13;1.80;;;-0.10;99.90;;;;;;4660361;30;20433;-75
2021/04/15 02:25:45;;;;;;;1.70;1.60;;;-0.10;99.90;;;;;;4675915;30;20499;-76
2021/04/15 02:28:22;;;;;;;1.90;1.80;;;-0.10;99.90;;;;;;4654979;30;20451;-76
2021/04/15 02:31:00;;;;;;;1.73;1.63;;;-0.10;99.90;;;;;;4658044;30;20426;-76
2021/04/15 02:33:34;;;;;;;2.77;1.67;;;-0.10;99.90;;;;;;4673987;30;20538;-76
2021/04/15 02:36:01;;;;;;;1.60;1.50;;;-0.10;99.90;;;;;;4676866;30;20449;-76
2021/04/15 02:38:43;;;;;;;1.67;1.58;;;-0.10;99.90;;;;;;4672917;30;20518;-77
2021/04/15 02:41:09;;;;;;;2.10;1.67;;;-0.10;99.90;;;;;;4657797;30;20518;-76
2021/04/15 02:43:37;;;;;;;1.73;1.63;;;-0.10;99.90;;;;;;4662236;30;20427;-76
2021/04/15 02:46:34;;;;;;;2.45;1.95;;;-0.10;99.90;;;;;;4674189;30;20429;-76
2021/04/15 02:49:01;;;;;;;1.83;1.73;;;-0.10;99.90;;;;;;4681495;30;20507;-77
2021/04/15 02:51:32;;;;;;;1.80;1.70;;;-0.10;99.90;;;;;;4674492;30;20443;-76
2021/04/15 02:54:04;;;;;;;1.80;1.70;;;-0.10;99.90;;;;;;4678606;30;20429;-76
2021/04/15 02:56:49;;;;;;;3.22;1.70;;;-0.10;99.90;;;;;;4663260;30;20428;-77
2021/04/15 02:59:18;;;;;;;2.40;1.90;;;-0.10;99.90;;;;;;4676107;30;20456;-77
2021/04/15 03:01:46;;;;;;;1.80;1.70;;;-0.10;99.90;;;;;;4687898;30;20447;-76
2021/04/15 03:04:16;;;;;;;3.00;1.88;;;-0.10;99.90;;;;;;4674662;30;20468;-76
2021/04/15 03:06:42;;;;;;;2.07;1.83;;;-0.10;99.90;;;;;;4679078;30;20433;-76
2021/04/15 03:09:08;;;;;;;2.50;1.90;;;-0.10;99.90;;;;;;4675621;30;20490;-76
2021/04/15 03:11:40;;;;;;;1.95;1.80;;;-0.10;99.90;;;;;;4693467;30;20495;-77
2021/04/15 03:14:08;;;;;;;2.13;1.98;;;-0.10;99.90;;;;;;4677258;30;20429;-76
2021/04/15 03:16:40;;;;;;;4.10;2.00;;;-0.10;99.90;;;;;;4666363;30;20442;-77
2021/04/15 03:19:25;;;;;;;3.27;2.20;;;-0.10;99.90;;;;;;4663090;30;20993;-76
2021/04/15 03:22:06;;;;;;;2.25;1.80;;;-0.10;99.90;;;;;;4684501;30;20453;-76
2021/04/15 03:24:36;;;;;;;2.10;1.90;;;-0.10;99.90;;;;;;4664554;30;20448;-77
2021/04/15 03:27:18;;;;;;;1.92;1.73;;;0.00;99.90;;;;;;4679166;30;20501;-76
2021/04/15 03:29:58;;;;;;;2.08;1.92;;;0.00;99.90;;;;;;4683425;30;20507;-76
2021/04/15 03:32:31;;;;;;;2.13;1.92;;;0.00;99.90;;;;;;4676319;30;20433;-77
2021/04/15 03:35:06;;;;;;;2.50;2.00;;;0.00;99.90;;;;;;4683308;30;21094;-76
2021/04/15 03:37:49;;;;;;;2.20;2.00;;;0.00;99.90;;;;;;4666139;30;20445;-76
2021/04/15 03:40:16;;;;;;;2.45;1.95;;;0.00;99.90;;;;;;4660109;30;20444;-76
2021/04/15 03:43:06;;;;;;;2.43;2.10;;;-0.10;99.90;;;;;;4680237;30;20425;-76
2021/04/15 03:45:37;;;;;;;2.22;1.90;;;-0.10;99.90;;;;;;4676308;30;20438;-76
2021/04/15 03:48:07;;;;;;;2.67;2.13;;;-0.10;99.90;;;;;;4663996;30;21058;-77
2021/04/15 03:50:48;;;;;;;3.63;2.35;;;-0.10;99.90;;;;;;4676518;30;20450;-75
2021/04/15 03:53:14;;;;;;;2.38;2.17;;;-0.10;99.90;;;;;;4651373;30;20449;-76
2021/04/15 03:55:41;;;;;;;2.53;2.25;;;-0.10;99.90;;;;;;4696089;30;20429;-76
2021/04/15 03:58:23;;;;;;;2.95;2.65;;;-0.10;99.90;;;;;;4677262;30;20429;-77
2021/04/15 04:01:06;;;;;;;2.78;2.45;;;-0.10;99.90;;;;;;4693380;30;20461;-78
2021/04/15 04:03:32;;;;;;;2.85;2.33;;;-0.10;99.90;;;;;;4683910;30;20442;-79
2021/04/15 04:06:13;;;;;;;2.60;2.20;;;-0.10;99.90;;;;;;4681485;30;20452;-76
2021/04/15 04:08:46;;;;;;;2.57;2.37;;;0.00;99.90;;;;;;4664479;30;20453;-76
2021/04/15 04:11:13;;;;;;;3.85;2.47;;;-0.10;99.90;;;;;;4676838;30;20522;-75
2021/04/15 04:13:41;;;;;;;2.47;2.28;;;-0.10;99.90;;;;;;4663735;30;20429;-76
2021/04/15 04:16:34;;;;;;;2.67;2.40;;;-0.10;99.90;;;;;;4659396;30;20437;-76
2021/04/15 04:19:20;;;;;;;2.60;2.40;;;-0.10;99.90;;;;;;4691050;30;20449;-77
2021/04/15 04:22:17;;;;;;;3.47;2.47;;;0.00;99.90;;;;;;4662587;30;20523;-76
2021/04/15 04:24:55;;;;;;;2.80;2.40;;;0.00;99.90;;;;;;4664067;30;20425;-77
2021/04/15 04:27:26;;;;;;;2.58;2.38;;;0.00;99.90;;;;;;4675476;30;21243;-76
2021/04/15 04:29:56;;;;;;;2.50;2.30;;;0.00;99.90;;;;;;4677369;30;20429;-76
2021/04/15 04:32:23;;;;;;;2.90;2.70;;;0.00;99.90;;;;;;4691039;30;20432;-75
2021/04/15 04:34:50;;;;;;;3.85;3.20;;;0.00;99.90;;;;;;4676885;30;20425;-75
2021/04/15 04:37:16;;;;;;;3.60;2.50;;;0.10;99.90;;;;;;4675631;30;20441;-75
2021/04/15 04:39:41;;;;;;;2.65;2.40;;;0.10;99.90;;;;;;4681304;30;20425;-76
2021/04/15 04:42:16;;;;;;;2.87;2.60;;;0.20;99.90;;;;;;4676854;30;21012;-77
2021/04/15 04:44:51;;;;;;;3.03;2.67;;;0.20;99.90;;;;;;4696499;30;20942;-78
2021/04/15 04:47:48;;;;;;;2.72;2.33;;;0.20;99.90;;;;;;4674998;30;20989;-78
2021/04/15 04:50:24;;;;;;;2.63;2.30;;;0.20;99.90;;;;;;4635451;30;20443;-78
2021/04/15 04:53:00;;;;;;;3.00;2.67;;;0.30;99.90;;;;;;4693636;30;20465;-77
2021/04/15 04:55:57;;;;;;;3.10;2.55;;;0.30;99.90;;;;;;4684098;30;20449;-77
2021/04/15 04:58:23;;;;;;;2.97;2.60;;;0.30;99.90;;;;;;4662928;30;20437;-76
2021/04/15 05:00:54;;;;;;;4.90;2.47;;;0.30;99.90;;;;;;4685228;30;20450;-78
2021/04/15 05:03:24;;;;;;;3.10;2.60;;;0.40;99.90;;;;;;4682223;30;20438;-77
2021/04/15 05:05:58;;;;;;;3.88;2.67;;;0.40;99.90;;;;;;4693122;30;20436;-78
2021/04/15 05:08:24;;;;;;;2.67;2.47;;;0.40;99.90;;;;;;4672058;30;20450;-77
2021/04/15 05:10:51;;;;;;;3.27;2.77;;;0.40;99.90;;;;;;4670743;30;20456;-77
2021/04/15 05:13:18;;;;;;;2.75;2.55;;;0.50;99.90;;;;;;4681410;30;20499;-76
2021/04/15 05:15:44;;;;;;;3.28;2.33;;;0.50;99.90;;;;;;4676633;30;20437;-76
2021/04/15 05:18:15;;;;;;;2.63;2.43;;;0.50;99.90;;;;;;4684291;30;20489;-79
2021/04/15 05:20:41;;;;;;;4.57;2.50;;;0.60;99.90;;;;;;4683797;30;20465;-78
2021/04/15 05:23:18;;;;;;;6.22;2.85;;;0.60;99.90;;;;;;4667518;30;20539;-78
2021/04/15 05:25:54;;;;;;;3.28;2.63;;;0.70;99.90;;;;;;4667727;30;20433;-78
2021/04/15 05:28:20;;;;;;;3.08;2.78;;;0.70;99.90;;;;;;4669974;30;20432;-79
2021/04/15 05:30:47;;;;;;;3.00;2.65;;;0.80;99.90;;;;;;4684493;30;20422;-79
2021/04/15 05:33:15;;;;;;;3.20;2.70;;;0.80;99.90;;;;;;4684312;30;20434;-78
2021/04/15 05:35:52;;;;;;;2.67;2.47;;;0.80;99.90;;;;;;4682662;30;20423;-78
2021/04/15 05:38:19;;;;;;;2.95;2.67;;;0.90;99.90;;;;;;4669536;30;20795;-79
2021/04/15 05:40:46;;;;;;;2.85;2.65;;;0.90;99.90;;;;;;4685667;30;20437;-79
2021/04/15 05:43:31;;;;;;;2.90;2.60;;;1.00;99.90;;;;;;4684124;30;20438;-79
2021/04/15 05:46:08;;;;;;;3.85;2.80;;;1.00;99.90;;;;;;4667938;30;20446;-78
2021/04/15 05:48:37;;;;;;;3.57;2.83;;;1.10;99.90;;;;;;4665901;30;20492;-79
2021/04/15 05:51:15;;;;;;;3.05;2.63;;;1.20;99.90;;;;;;4667766;30;20584;-77
2021/04/15 05:53:45;;;;;;;4.85;3.28;;;1.20;99.90;;;;;;4684217;30;20922;-77
2021/04/15 05:56:23;;;;;;;3.13;2.70;;;1.40;99.90;;;;;;4654914;30;20467;-78
2021/04/15 05:59:13;;;;;;;3.20;2.90;;;1.40;99.90;;;;;;4671508;30;20428;-80
2021/04/15 06:01:42;;;;;;;3.25;2.95;;;1.30;99.90;;;;;;4682380;30;20484;-80
2021/04/15 06:04:29;;;;;;;4.50;3.00;;;1.50;99.90;;;;;;4683240;30;20433;-78
2021/04/15 06:06:55;;;;;;;4.43;3.20;;;1.60;99.90;;;;;;4662970;30;21132;-80
2021/04/15 06:09:21;;;;;;;3.97;3.05;;;1.90;99.90;;;;;;4672617;30;20444;-78
2021/04/15 06:12:03;;;;;;;2.90;2.50;;;1.80;99.90;;;;;;4683022;30;20499;-78
2021/04/15 06:14:57;;;;;;;3.88;2.80;;;1.90;99.90;;;;;;4668574;30;20465;-79
2021/04/15 06:17:26;;;;;;;3.10;2.90;;;2.00;99.90;;;;;;4654034;30;20432;-78
2021/04/15 06:20:04;;;;;;;3.17;2.88;;;2.10;99.90;;;;;;4698164;30;20437;-80
2021/04/15 06:22:30;;;;;;;3.22;2.90;;;2.10;99.90;;;;;;4668833;30;20437;-78
2021/04/15 06:25:11;;;;;;;3.50;2.75;;;2.10;99.90;;;;;;4682924;30;20880;-79
2021/04/15 06:27:37;;;;;;;3.97;3.00;;;2.30;99.90;;;;;;4655032;30;20421;-79
2021/04/15 06:30:07;;;;;;;3.28;2.83;;;2.40;99.90;;;;;;4667468;30;20433;-78
2021/04/15 06:32:39;;;;;;;2.92;2.72;;;2.40;99.90;;;;;;4683726;30;20426;-79
2021/04/15 06:35:12;;;;;;;3.30;2.93;;;2.70;99.90;;;;;;4674760;30;20432;-79
2021/04/15 06:37:45;;;;;;;3.30;3.00;;;2.70;99.90;;;;;;4654813;30;20435;-79
2021/04/15 06:40:34;;;;;;;2.97;2.78;;;2.80;99.90;;;;;;4654674;30;20437;-81
2021/04/15 06:43:38;;;;;;;3.00;2.70;;;2.80;99.90;;;;;;4689036;30;20440;-79
2021/04/15 06:50:05;;;;;;;3.75;2.90;;;3.00;99.90;;;;;;4674283;30;20428;-78
2021/04/15 06:52:46;;;;;;;2.80;2.60;;;3.10;99.90;;;;;;4646832;30;21017;-78
2021/04/15 06:55:32;;;;;;;4.15;2.75;;;3.20;99.90;;;;;;4661659;30;20419;-77
2021/04/15 06:58:09;;;;;;;2.65;2.45;;;3.40;99.90;;;;;;4655604;30;20483;-78
2021/04/15 07:00:40;;;;;;;3.95;2.85;;;3.30;99.90;;;;;;4667897;30;20545;-77
2021/04/15 07:03:19;;;;;;;2.92;2.63;;;3.50;99.90;;;;;;4674321;30;20466;-77
2021/04/15 07:05:58;;;;;;;4.10;2.58;;;3.60;99.90;;;;;;4672430;30;20955;-77
2021/04/15 07:08:51;;;;;;;3.00;2.70;;;3.70;99.90;;;;;;4650839;30;21087;-77
2021/04/15 07:11:42;;;;;;;2.67;2.47;;;3.80;99.90;;;;;;4674684;30;20842;-76
2021/04/15 07:14:16;;;;;;;2.92;2.53;;;3.80;99.90;;;;;;4663828;30;20431;-77
2021/04/15 07:16:45;;;;;;;3.08;2.78;;;3.90;99.90;;;;;;4654236;30;20489;-77
2021/04/15 07:19:28;;;;;;;2.60;2.40;;;3.90;99.90;;;;;;4641018;30;20443;-77
2021/04/15 07:22:13;;;;;;;2.90;2.50;;;4.10;99.90;;;;;;4674680;30;20425;-77
2021/04/15 07:25:00;;;;;;;2.50;2.20;;;4.10;99.90;;;;;;4671320;30;20435;-77
2021/04/15 07:27:49;;;;;;;3.65;2.65;;;4.20;99.90;;;;;;4660912;30;20486;-77
2021/04/15 07:30:48;;;;;;;3.20;2.50;;;4.10;99.90;;;;;;4660469;30;20431;-78
2021/04/15 07:33:52;;;;;;;3.15;2.70;;;4.20;99.90;;;;;;4657888;30;20420;-78
2021/04/15 07:36:59;;;;;;;3.53;2.60;;;4.50;99.90;;;;;;4674413;30;20509;-77
2021/04/15 07:39:50;;;;;;;2.63;2.42;;;4.60;99.90;;;;;;4639789;30;20445;-77
2021/04/15 07:42:51;;;;;;;2.70;2.40;;;4.60;99.90;;;;;;4656932;30;20435;-78
2021/04/15 07:45:25;;;;;;;3.28;2.15;;;4.60;99.90;;;;;;4676694;30;20437;-78
2021/04/15 07:48:19;;;;;;;2.27;2.07;;;4.70;99.90;;;;;;4661323;30;20431;-77
2021/04/15 07:51:21;;;;;;;2.97;2.30;;;4.80;99.90;;;;;;4679020;30;20631;-76
2021/04/15 07:53:56;;;;;;;2.10;1.90;;;5.00;99.90;;;;;;4645920;30;20939;-77
2021/04/15 07:56:37;;;;;;;2.35;2.15;;;5.20;99.90;;;;;;4668930;30;20517;-77
2021/04/15 07:59:29;;;;;;;2.33;2.13;;;5.20;99.90;;;;;;4663573;30;20461;-77
2021/04/15 08:02:20;;;;;;;2.33;2.13;;;5.10;99.90;;;;;;4648226;30;20438;-77
2021/04/15 08:05:04;;;;;;;2.85;1.90;;;5.20;99.90;;;;;;4662314;30;20439;-77
2021/04/15 08:07:42;;;;;;;2.30;2.10;;;5.30;99.90;;;;;;4685872;30;20457;-77
2021/04/15 08:10:32;;;;;;;1.92;1.83;;;5.50;99.90;;;;;;4663268;30;20427;-77
2021/04/15 08:13:30;;;;;;;2.40;2.20;;;5.50;99.90;;;;;;4676877;30;20431;-77
2021/04/15 08:16:19;;;;;;;1.95;1.80;;;5.60;99.90;;;;;;4635220;30;20431;-77
2021/04/15 08:19:15;;;;;;;1.92;1.80;;;5.70;99.90;;;;;;4649974;30;20431;-77
2021/04/15 08:21:51;;;;;;;2.30;2.00;;;5.80;99.90;;;;;;4671081;30;21011;-78
2021/04/15 08:24:46;;;;;;;2.25;1.90;;;5.90;99.90;;;;;;4648964;30;20474;-78
2021/04/15 08:27:40;;;;;;;2.13;1.73;;;5.90;99.90;;;;;;4671039;30;20565;-77
2021/04/15 08:30:33;;;;;;;2.15;1.70;;;6.00;99.90;;;;;;4662484;30;20921;-78
2021/04/15 08:33:38;;;;;;;2.00;1.90;;;6.20;99.90;;;;;;4659872;30;20435;-77
2021/04/15 08:36:25;;;;;;;2.58;1.70;;;6.40;99.90;;;;;;4661532;30;20945;-77
2021/04/15 08:38:58;;;;;;;3.28;1.85;;;6.50;99.90;;;;;;4661776;30;20438;-77
2021/04/15 08:41:36;;;;;;;1.63;1.52;;;6.60;99.90;;;;;;4651040;30;20423;-77
2021/04/15 08:44:32;;;;;;;1.80;1.70;;;6.30;99.90;;;;;;4662551;30;20430;-77
2021/04/15 08:47:06;;;;;;;1.70;1.60;;;6.40;99.90;;;;;;4676577;30;20436;-76
2021/04/15 08:49:57;;;;;;;1.80;1.70;;;6.50;99.90;;;;;;4670508;30;20502;-78
2021/04/15 08:52:32;;;;;;;1.65;1.55;;;6.60;99.90;;;;;;4672075;30;20465;-78
2021/04/15 08:55:13;;;;;;;2.30;1.65;;;6.90;99.90;;;;;;4666009;30;20495;-76
2021/04/15 08:57:43;;;;;;;1.70;1.60;;;7.20;99.90;;;;;;4660955;30;20438;-78
2021/04/15 09:00:34;;;;;;;2.00;1.80;;;7.30;99.90;;;;;;4662074;30;20501;-76
2021/04/15 09:03:13;;;;;;;1.40;1.30;;;6.90;99.90;;;;;;4646386;30;20441;-76
2021/04/15 09:06:00;;;;;;;1.70;1.60;;;6.50;99.90;;;;;;4679426;30;20427;-77
2021/04/15 09:08:27;;;;;;;1.50;1.40;;;6.70;99.90;;;;;;4678978;30;20427;-77
2021/04/15 09:11:07;;;;;;;2.40;1.73;;;6.90;99.90;;;;;;4663669;30;20489;-79
2021/04/15 09:13:56;;;;;;;2.90;1.55;;;7.10;99.90;;;;;;4678818;30;20446;-79
2021/04/15 09:16:39;;;;;;;1.65;1.55;;;7.20;99.90;;;;;;4653906;30;20431;-78
2021/04/15 09:19:07;;;;;;;2.30;1.40;;;6.90;99.90;;;;;;4650766;30;20490;-78
2021/04/15 09:21:45;;;;;;;1.52;1.42;;;6.90;99.90;;;;;;4679392;30;20482;-79
2021/04/15 09:24:13;;;;;;;1.55;1.45;;;6.90;99.90;;;;;;4685189;30;20791;-78
2021/04/15 09:27:15;;;;;;;2.60;2.00;;;6.90;99.90;;;;;;4664478;30;20415;-78
2021/04/15 09:29:56;;;;;;;1.50;1.40;;;6.70;99.90;;;;;;4678019;30;20467;-79
2021/04/15 09:32:38;;;;;;;1.75;1.65;;;6.70;99.90;;;;;;4677193;30;20419;-78
2021/04/15 09:36:02;;;;;;;1.42;1.33;;;6.70;99.90;;;;;;4664895;30;20429;-78
2021/04/15 09:38:39;;;;;;;1.48;1.38;;;6.70;99.90;;;;;;4637845;30;20434;-78
2021/04/15 09:41:17;;;;;;;1.50;1.40;;;6.50;99.90;;;;;;4672366;30;20482;-76
2021/04/15 09:43:43;;;;;;;1.40;1.30;;;6.60;99.90;;;;;;4672615;30;20447;-78
2021/04/15 09:46:19;;;;;;;1.15;1.15;;;6.90;99.90;;;;;;4658839;30;20533;-77
2021/04/15 09:49:06;;;;;;;1.10;1.10;;;7.00;99.90;;;;;;4664514;30;20438;-78
2021/04/15 09:51:40;;;;;;;1.30;1.20;;;7.10;99.90;;;;;;4677793;30;20412;-78
2021/04/15 09:54:31;;;;;;;1.50;1.20;;;7.30;99.90;;;;;;4677791;30;20425;-79
2021/04/15 09:57:14;;;;;;;1.52;1.42;;;7.30;99.90;;;;;;4674279;30;20421;-78
2021/04/15 10:00:11;;;;;;;1.08;1.00;;;7.40;99.90;;;;;;4677557;30;20439;-78
2021/04/15 10:02:44;;;;;;;1.38;1.27;;;7.40;99.90;;;;;;4641850;30;20448;-79
2021/04/15 10:05:13;;;;;;;0.93;0.93;;;7.40;99.90;;;;;;4662373;30;20431;-78
2021/04/15 10:07:48;;;;;;;1.10;1.10;;;7.40;99.90;;;;;;4648833;30;20489;-78
2021/04/15 10:10:27;;;;;;;1.10;1.10;;;7.60;99.90;;;;;;4659033;30;20421;-78
2021/04/15 10:13:43;;;;;;;1.00;1.00;;;7.40;99.90;;;;;;4675210;30;20470;-78
2021/04/15 10:16:32;;;;;;;1.20;1.10;;;7.30;99.90;;;;;;4649633;30;20449;-78
2021/04/15 10:19:16;;;;;;;1.07;1.03;;;7.40;99.90;;;;;;4649750;30;20427;-78
2021/04/15 10:22:01;;;;;;;1.23;1.20;;;7.20;99.90;;;;;;4676434;30;20430;-78
2021/04/15 10:24:39;;;;;;;0.80;0.80;;;7.10;99.90;;;;;;4660291;30;20508;-78
2021/04/15 10:27:42;;;;;;;1.00;1.00;;;7.00;99.90;;;;;;4652212;30;20458;-78
2021/04/15 10:30:12;;;;;;;0.90;0.90;;;6.90;99.90;;;;;;4676292;30;20498;-78
2021/04/15 10:32:56;;;;;;;0.75;0.75;;;7.10;99.90;;;;;;4649135;30;20427;-78
2021/04/15 10:35:47;;;;;;;1.10;1.10;;;7.00;99.90;;;;;;4677676;30;20483;-79
2021/04/15 10:38:41;;;;;;;0.90;0.90;;;7.00;99.90;;;;;;4664819;30;20438;-79
2021/04/15 10:41:12;;;;;;;1.23;1.15;;;7.10;99.90;;;;;;4645146;30;20519;-78
2021/04/15 10:43:56;;;;;;;1.83;1.13;;;6.80;99.90;;;;;;4663220;30;20462;-78
2021/04/15 10:46:48;;;;;;;1.38;1.27;;;6.80;99.90;;;;;;4673716;30;20504;-79
2021/04/15 10:49:37;;;;;;;1.00;1.00;;;7.00;99.90;;;;;;4673882;30;20432;-78
2021/04/15 10:52:05;;;;;;;1.00;1.00;;;6.90;99.90;;;;;;4672485;30;20482;-79
2021/04/15 10:54:39;;;;;;;2.30;1.30;;;7.10;99.90;;;;;;4680595;30;20416;-78
2021/04/15 10:57:29;;;;;;;1.50;1.40;;;6.90;99.90;;;;;;4642292;30;20436;-78
2021/04/15 10:59:54;;;;;;;1.40;1.30;;;6.60;99.90;;;;;;4641207;30;20448;-78
2021/04/15 11:02:24;;;;;;;1.30;1.20;;;6.50;99.90;;;;;;4646728;30;20429;-78
2021/04/15 11:04:51;;;;;;;1.40;1.30;;;6.20;99.90;;;;;;4646817;30;20441;-78
2021/04/15 11:07:27;;;;;;;1.35;1.25;;;6.20;99.90;;;;;;4646824;30;20424;-79
2021/04/15 11:09:56;;;;;;;0.97;0.97;;;6.40;99.90;;;;;;4647756;30;20429;-78
2021/04/15 11:12:32;;;;;;;1.00;1.00;;;6.70;99.90;;;;;;4660053;30;20439;-79
2021/04/15 11:15:21;;;;;;;1.40;1.30;;;6.80;99.90;;;;;;4647871;30;20852;-79
2021/04/15 11:17:48;;;;;;;0.98;0.98;;;6.70;99.90;;;;;;4647803;30;20428;-78
2021/04/15 11:20:23;;;;;;;1.20;1.10;;;6.80;99.90;;;;;;4646509;30;20445;-79
2021/04/15 11:23:13;;;;;;;1.20;1.10;;;6.80;99.90;;;;;;4673818;30;20525;-78
2021/04/15 11:25:46;;;;;;;1.00;1.00;;;7.10;99.90;;;;;;4663229;30;20445;-79
2021/04/15 11:28:18;;;;;;;0.80;0.80;;;7.20;99.90;;;;;;4653444;30;20439;-79
2021/04/15 11:31:10;;;;;;;0.77;0.77;;;7.20;99.90;;;;;;4680141;30;20431;-78
2021/04/15 11:33:40;;;;;;;0.93;0.93;;;6.80;99.90;;;;;;4678780;30;20427;-78
2021/04/15 11:36:10;;;;;;;0.90;0.90;;;6.80;99.90;;;;;;4660082;30;20427;-78
2021/04/15 11:38:36;;;;;;;0.98;0.98;;;6.90;99.90;;;;;;4666642;30;20423;-79
2021/04/15 11:41:10;;;;;;;1.07;1.03;;;7.10;99.90;;;;;;4651892;30;20927;-79
2021/04/15 11:46:24;;;;;;;0.90;0.90;;;7.30;99.90;;;;;;4704586;30;20432;-80
2021/04/15 11:49:26;;;;;;;1.40;1.20;;;7.10;99.90;;;;;;4682030;30;20937;-80
2021/04/15 11:51:58;;;;;;;1.10;1.10;;;7.00;99.90;;;;;;4668924;30;20444;-80
2021/04/15 11:54:34;;;;;;;0.85;0.85;;;7.10;99.90;;;;;;4653775;30;20431;-80
2021/04/15 11:57:21;;;;;;;1.20;1.20;;;7.30;99.90;;;;;;4659774;30;20486;-80
2021/04/15 11:59:59;;;;;;;1.17;1.05;;;7.50;99.90;;;;;;4673035;30;20447;-79
2021/04/15 12:02:30;;;;;;;1.30;1.20;;;7.30;99.90;;;;;;4677078;30;20434;-80
2021/04/15 12:05:13;;;;;;;1.20;1.10;;;7.00;99.90;;;;;;4670162;30;20440;-80
2021/04/15 12:08:03;;;;;;;1.70;1.20;;;6.80;99.90;;;;;;4669315;30;20423;-80
2021/04/15 12:10:58;;;;;;;1.00;1.00;;;7.20;99.90;;;;;;4659289;30;20427;-80
2021/04/15 12:14:08;;;;;;;0.90;0.90;;;7.30;99.90;;;;;;4686515;30;20434;-80
2021/04/15 12:17:06;;;;;;;1.00;1.00;;;7.20;99.90;;;;;;4661841;30;20451;-80
2021/04/15 12:19:54;;;;;;;0.80;0.80;;;7.30;99.90;;;;;;4658258;30;21044;-79
2021/04/15 12:22:20;;;;;;;0.93;0.93;;;7.40;99.90;;;;;;4669588;30;20799;-79
2021/04/15 12:24:54;;;;;;;1.30;1.20;;;7.40;99.90;;;;;;4678931;30;20431;-80
2021/04/15 12:27:27;;;;;;;1.20;1.10;;;7.10;99.90;;;;;;4671377;30;20431;-80
2021/04/15 12:29:58;;;;;;;1.10;0.98;;;7.20;99.90;;;;;;4671371;30;20459;-80
2021/04/15 12:33:00;;;;;;;1.90;0.90;;;7.20;99.90;;;;;;4676109;30;20473;-79
2021/04/15 12:35:44;;;;;;;1.00;1.00;;;7.00;99.90;;;;;;4660973;30;20482;-80
2021/04/15 12:38:34;;;;;;;1.42;1.33;;;7.20;99.90;;;;;;4667353;30;20434;-80
2021/04/15 12:41:13;;;;;;;1.00;1.00;;;7.30;99.90;;;;;;4669042;30;20549;-80
2021/04/15 12:44:01;;;;;;;1.45;1.20;;;7.40;99.90;;;;;;4660327;30;20487;-81
2021/04/15 12:46:32;;;;;;;0.80;0.80;;;7.10;99.90;;;;;;4644224;30;20890;-80
2021/04/15 12:49:11;;;;;;;1.30;1.20;;;7.10;99.90;;;;;;4668551;30;20434;-79
2021/04/15 12:51:43;;;;;;;0.95;0.85;;;7.20;99.90;;;;;;4633363;30;20436;-80
2021/04/15 12:54:21;;;;;;;1.10;1.00;;;7.40;99.90;;;;;;4670258;30;20446;-80
2021/04/15 12:57:22;;;;;;;0.90;0.90;;;7.50;99.90;;;;;;4652513;30;20423;-80
2021/04/15 13:00:34;;;;;;;0.93;0.93;;;7.20;99.90;;;;;;4641932;30;20467;-81
2021/04/15 13:03:36;;;;;;;1.00;1.00;;;7.20;99.90;;;;;;4623800;30;20441;-79
2021/04/15 13:06:08;;;;;;;0.90;0.90;;;7.40;99.90;;;;;;4662997;30;21747;-80
2021/04/15 13:08:39;;;;;;;1.05;1.00;;;7.60;99.90;;;;;;4647287;30;20481;-80
2021/04/15 13:11:20;;;;;;;0.80;0.80;;;7.60;99.90;;;;;;4655530;30;20531;-80
2021/04/15 13:13:53;;;;;;;0.90;0.90;;;7.70;99.90;;;;;;4660196;30;20512;-80
2021/04/15 13:17:07;;;;;;;0.93;0.93;;;7.90;99.90;;;;;;4602410;30;20448;-80
2021/04/15 13:21:17;;;;;;;1.00;0.90;;;8.10;99.90;;;;;;4668980;30;20464;-80
2021/04/15 13:28:06;;;;;;;1.00;1.00;;;7.80;99.90;;;;;;4668063;30;20435;-80
2021/04/15 13:31:40;;;;;;;0.83;0.83;;;7.80;99.90;;;;;;4669381;30;20425;-81
2021/04/15 13:35:03;;;;;;;2.15;1.00;;;7.70;99.90;;;;;;4659772;30;20468;-81
2021/04/15 13:38:24;;;;;;;0.80;0.80;;;7.70;99.90;;;;;;4639240;30;20435;-81
2021/04/15 13:47:00;;;;;;;1.00;1.00;;;7.40;99.90;;;;;;4653443;30;20499;-80
2021/04/15 13:55:03;;;;;;;0.82;0.82;;;7.60;99.90;;;;;;4601779;31;21063;-80
2021/04/15 14:02:16;;;;;;;0.93;0.93;;;7.20;99.90;;;;;;4725697;30;20519;-80
2021/04/15 14:04:42;;;;;;;1.00;1.00;;;7.20;99.90;;;;;;4679360;30;20461;-79
2021/04/15 14:07:31;;;;;;;0.90;0.90;;;7.30;99.90;;;;;;4679309;30;20425;-78
2021/04/15 14:10:17;;;;;;;0.87;0.87;;;7.10;99.90;;;;;;4684491;30;20426;-79
2021/04/15 14:12:53;;;;;;;1.25;1.17;;;7.10;99.90;;;;;;4692900;30;21276;-79
2021/04/15 14:15:34;;;;;;;1.20;1.10;;;7.20;99.90;;;;;;4712856;30;20428;-79
2021/04/15 14:18:24;;;;;;;1.77;1.20;;;7.10;99.90;;;;;;4699945;30;20488;-79
2021/04/15 14:21:09;;;;;;;1.02;1.02;;;7.10;99.90;;;;;;4672202;30;20463;-78
2021/04/15 14:23:42;;;;;;;1.67;1.17;;;7.10;99.90;;;;;;4677702;30;20437;-78